createdAt,value
2022-08-06T00:00:05.733Z,27.47
2022-08-06T00:02:42.869Z,27.42
2022-08-06T00:05:18.311Z,27.39
2022-08-06T00:07:53.448Z,27.44
2022-08-06T00:10:29.917Z,27.38
2022-08-06T00:13:04.324Z,27.39
2022-08-06T00:16:10.080Z,27.40
2022-08-06T00:18:24.119Z,27.32
2022-08-06T00:20:53.857Z,27.37
2022-08-06T00:23:24.649Z,27.36
2022-08-06T00:25:54.839Z,27.35
2022-08-06T00:28:32.143Z,27.38
2022-08-06T00:31:11.194Z,27.38
2022-08-06T00:33:50.169Z,27.31
2022-08-06T00:36:24.930Z,27.24
2022-08-06T00:38:58.045Z,27.27
2022-08-06T00:41:35.524Z,27.28
2022-08-06T00:44:12.393Z,27.24
2022-08-06T00:46:41.179Z,27.14
2022-08-06T00:49:11.761Z,27.24
2022-08-06T00:51:51.102Z,27.15
2022-08-06T00:54:28.783Z,27.20
2022-08-06T00:57:08.102Z,27.14
2022-08-06T00:59:40.442Z,27.14
2022-08-06T01:02:14.799Z,27.12
2022-08-06T01:04:43.043Z,27.09
2022-08-06T01:07:12.095Z,27.11
2022-08-06T01:09:46.019Z,27.09
2022-08-06T01:12:33.871Z,27.06
2022-08-06T01:15:16.033Z,27.03
2022-08-06T01:18:00.130Z,27.01
2022-08-06T01:21:58.578Z,27.00
2022-08-06T01:23:44.868Z,26.99
2022-08-06T01:26:37.154Z,26.94
2022-08-06T01:29:16.533Z,26.91
2022-08-06T01:32:19.131Z,26.84
2022-08-06T01:35:01.627Z,26.85
2022-08-06T01:38:03.680Z,26.81
2022-08-06T01:40:36.732Z,26.72
2022-08-06T01:43:22.693Z,26.72
2022-08-06T01:45:55.214Z,26.69
2022-08-06T01:48:28.458Z,26.63
2022-08-06T01:51:03.739Z,26.62
2022-08-06T01:54:02.683Z,26.67
2022-08-06T01:56:55.966Z,26.54
2022-08-06T01:59:18.674Z,26.54
2022-08-06T02:01:54.948Z,26.51
2022-08-06T02:04:30.823Z,26.47
2022-08-06T02:07:02.588Z,26.39
2022-08-06T02:09:37.667Z,26.35
2022-08-06T02:12:12.348Z,26.29
2022-08-06T02:14:57.149Z,26.15
2022-08-06T02:18:04.388Z,26.16
2022-08-06T02:20:52.994Z,26.06
2022-08-06T02:23:34.737Z,25.92
2022-08-06T02:26:05.397Z,25.89
2022-08-06T02:28:36.090Z,25.84
2022-08-06T02:31:08.444Z,25.81
2022-08-06T02:34:02.965Z,25.77
2022-08-06T02:36:50.037Z,25.76
2022-08-06T02:39:47.565Z,25.73
2022-08-06T02:42:36.085Z,25.68
2022-08-06T02:45:16.509Z,25.62
2022-08-06T02:48:09.237Z,25.57
2022-08-06T02:50:41.834Z,25.18
2022-08-06T02:53:24.653Z,25.35
2022-08-06T02:56:00.668Z,25.34
2022-08-06T02:58:58.040Z,25.31
2022-08-06T03:01:43.073Z,25.26
2022-08-06T03:04:15.350Z,25.19
2022-08-06T03:06:49.109Z,25.17
2022-08-06T03:09:20.237Z,25.10
2022-08-06T03:11:51.589Z,25.07
2022-08-06T03:15:04.338Z,25.03
2022-08-06T03:17:14.522Z,24.95
2022-08-06T03:19:56.978Z,24.94
2022-08-06T03:22:36.270Z,24.92
2022-08-06T03:25:16.047Z,24.87
2022-08-06T03:27:45.957Z,24.53
2022-08-06T03:30:31.991Z,24.74
2022-08-06T03:33:28.534Z,24.72
2022-08-06T03:36:01.741Z,24.66
2022-08-06T03:38:39.078Z,24.68
2022-08-06T03:41:09.638Z,24.59
2022-08-06T03:43:56.447Z,24.57
2022-08-06T03:46:48.535Z,24.56
2022-08-06T03:49:31.189Z,24.54
2022-08-06T03:52:14.945Z,24.48
2022-08-06T03:54:51.381Z,24.51
2022-08-06T03:57:29.614Z,24.47
2022-08-06T04:00:15.766Z,24.45
2022-08-06T04:02:55.528Z,24.37
2022-08-06T04:05:30.003Z,24.38
2022-08-06T04:08:06.446Z,24.36
2022-08-06T04:10:43.047Z,24.30
2022-08-06T04:14:03.305Z,24.25
2022-08-06T04:16:33.155Z,24.14
2022-08-06T04:19:09.007Z,24.17
2022-08-06T04:23:04.935Z,24.16
2022-08-06T04:24:30.433Z,24.15
2022-08-06T04:27:09.457Z,24.10
2022-08-06T04:29:56.769Z,24.11
2022-08-06T04:32:32.025Z,24.06
2022-08-06T04:36:05.539Z,24.04
2022-08-06T04:37:56.864Z,24.06
2022-08-06T04:40:35.621Z,24.06
2022-08-06T04:43:18.938Z,24.07
2022-08-06T04:46:16.965Z,24.12
2022-08-06T04:48:40.082Z,24.11
2022-08-06T04:52:35.928Z,24.10
2022-08-06T04:54:12.063Z,24.08
2022-08-06T04:56:49.732Z,24.08
2022-08-06T04:59:49.964Z,24.06
2022-08-06T05:02:18.908Z,23.93
2022-08-06T05:04:47.990Z,24.02
2022-08-06T05:07:51.400Z,24.04
2022-08-06T05:11:06.208Z,23.84
2022-08-06T05:13:40.429Z,23.87
2022-08-06T05:16:14.478Z,23.84
2022-08-06T05:19:20.759Z,23.87
2022-08-06T05:22:10.919Z,23.84
2022-08-06T05:25:14.527Z,23.82
2022-08-06T05:28:04.313Z,23.78
2022-08-06T05:30:48.103Z,23.79
2022-08-06T05:33:38.746Z,23.79
2022-08-06T05:36:19.649Z,23.78
2022-08-06T05:38:54.760Z,23.79
2022-08-06T05:41:33.373Z,23.78
2022-08-06T05:44:08.048Z,23.77
2022-08-06T05:46:46.177Z,23.85
2022-08-06T05:49:55.631Z,23.85
2022-08-06T05:52:30.947Z,23.85
2022-08-06T05:55:11.420Z,23.89
2022-08-06T05:57:57.764Z,23.89
2022-08-06T06:00:43.662Z,23.88
2022-08-06T06:03:25.272Z,23.82
2022-08-06T06:06:05.116Z,23.91
2022-08-06T06:08:57.630Z,23.90
2022-08-06T06:11:55.661Z,23.90
2022-08-06T06:14:43.207Z,23.92
2022-08-06T06:17:48.387Z,23.86
2022-08-06T06:21:03.200Z,23.93
2022-08-06T06:24:29.108Z,23.93
2022-08-06T06:27:42.992Z,24.06
2022-08-06T06:31:03.318Z,24.18
2022-08-06T06:33:42.045Z,24.30
2022-08-06T06:36:31.260Z,24.47
2022-08-06T06:40:00.472Z,24.52
2022-08-06T06:42:44.873Z,24.69
2022-08-06T06:46:07.805Z,24.85
2022-08-06T06:48:34.718Z,25.00
2022-08-06T06:51:41.050Z,25.12
2022-08-06T06:54:11.651Z,25.21
2022-08-06T06:56:56.364Z,25.32
2022-08-06T07:00:03.999Z,25.44
2022-08-06T07:02:31.393Z,25.49
2022-08-06T07:05:05.889Z,25.60
2022-08-06T07:07:43.589Z,25.67
2022-08-06T07:10:22.209Z,25.73
2022-08-06T07:12:53.578Z,25.84
2022-08-06T07:15:24.346Z,25.80
2022-08-06T07:17:58.952Z,25.95
2022-08-06T07:20:32.154Z,25.98
2022-08-06T07:24:06.413Z,26.03
2022-08-06T07:25:56.754Z,26.08
2022-08-06T07:28:33.841Z,26.15
2022-08-06T07:31:09.358Z,26.25
2022-08-06T07:34:00.522Z,26.35
2022-08-06T07:36:37.807Z,26.36
2022-08-06T07:39:18.668Z,26.45
2022-08-06T07:42:10.796Z,26.54
2022-08-06T07:44:56.614Z,26.60
2022-08-06T07:47:54.715Z,26.78
2022-08-06T07:50:26.829Z,26.80
2022-08-06T07:52:57.017Z,26.83
2022-08-06T07:55:37.068Z,26.88
2022-08-06T07:58:10.537Z,26.90
2022-08-06T08:00:41.926Z,26.95
2022-08-06T08:03:57.580Z,26.97
2022-08-06T08:06:27.589Z,26.96
2022-08-06T08:09:15.796Z,27.03
2022-08-06T08:12:25.944Z,26.93
2022-08-06T08:14:50.201Z,26.99
2022-08-06T08:17:30.161Z,27.02
2022-08-06T08:20:15.583Z,27.05
2022-08-06T08:22:51.845Z,27.03
2022-08-06T08:25:21.661Z,27.09
2022-08-06T08:28:12.071Z,27.18
2022-08-06T08:30:47.859Z,27.26
2022-08-06T08:33:20.619Z,27.28
2022-08-06T08:36:00.879Z,27.31
2022-08-06T08:38:31.163Z,27.35
2022-08-06T08:41:21.882Z,27.42
2022-08-06T08:44:26.701Z,27.39
2022-08-06T08:46:59.608Z,27.43
2022-08-06T08:50:11.475Z,27.42
2022-08-06T08:52:46.023Z,27.51
2022-08-06T08:57:11.729Z,27.56
2022-08-06T08:58:39.309Z,27.34
2022-08-06T09:00:55.656Z,27.50
2022-08-06T09:03:24.062Z,27.55
2022-08-06T09:05:53.310Z,27.58
2022-08-06T09:08:59.614Z,27.64
2022-08-06T09:11:20.833Z,27.70
2022-08-06T09:14:02.345Z,27.81
2022-08-06T09:16:33.264Z,27.84
2022-08-06T09:19:05.540Z,27.76
2022-08-06T09:21:39.180Z,27.85
2022-08-06T09:24:12.244Z,27.88
2022-08-06T09:27:03.248Z,27.94
2022-08-06T09:30:11.548Z,27.99
2022-08-06T09:32:54.841Z,28.00
2022-08-06T09:35:45.077Z,28.10
2022-08-06T09:38:17.898Z,28.13
2022-08-06T09:41:15.633Z,28.16
2022-08-06T09:44:03.916Z,28.21
2022-08-06T09:46:47.664Z,28.24
2022-08-06T09:49:47.400Z,28.31
2022-08-06T09:52:17.269Z,28.35
2022-08-06T09:54:53.263Z,28.30
2022-08-06T09:57:33.074Z,28.39
2022-08-06T10:00:14.209Z,28.42
2022-08-06T10:02:45.743Z,28.47
2022-08-06T10:05:22.873Z,28.50
2022-08-06T10:08:11.620Z,28.58
2022-08-06T10:10:54.045Z,28.49
2022-08-06T10:13:39.106Z,28.60
2022-08-06T10:16:19.616Z,28.62
2022-08-06T10:18:56.644Z,28.61
2022-08-06T10:21:42.344Z,28.68
2022-08-06T10:24:26.195Z,28.65
2022-08-06T10:27:14.842Z,28.71
2022-08-06T10:29:55.623Z,28.73
2022-08-06T10:33:18.098Z,28.68
2022-08-06T10:35:58.548Z,28.78
2022-08-06T10:38:38.633Z,28.77
2022-08-06T10:41:28.029Z,28.79
2022-08-06T10:44:07.145Z,28.90
2022-08-06T10:46:36.492Z,28.90
2022-08-06T10:50:24.121Z,28.94
2022-08-06T10:51:59.005Z,28.92
2022-08-06T10:54:28.503Z,28.93
2022-08-06T10:56:58.883Z,28.97
2022-08-06T10:59:53.682Z,29.00
2022-08-06T11:02:40.482Z,29.08
2022-08-06T11:05:25.725Z,29.07
2022-08-06T11:08:51.948Z,29.08
2022-08-06T11:12:05.601Z,29.16
2022-08-06T11:14:38.642Z,29.15
2022-08-06T11:17:11.489Z,29.19
2022-08-06T11:19:46.883Z,29.34
2022-08-06T11:22:37.001Z,29.41
2022-08-06T11:25:26.292Z,29.37
2022-08-06T11:27:59.459Z,29.42
2022-08-06T11:30:55.502Z,29.46
2022-08-06T11:33:36.372Z,29.44
2022-08-06T11:36:13.612Z,29.39
2022-08-06T11:38:51.727Z,29.42
2022-08-06T11:41:50.225Z,29.41
2022-08-06T11:44:25.032Z,29.45
2022-08-06T11:47:16.734Z,29.52
2022-08-06T11:49:47.924Z,29.42
2022-08-06T11:52:39.847Z,29.55
2022-08-06T11:55:23.575Z,29.58
2022-08-06T11:58:16.956Z,29.58
2022-08-06T12:01:34.106Z,29.61
2022-08-06T12:03:53.113Z,29.59
2022-08-06T12:06:27.038Z,29.63
2022-08-06T12:09:36.045Z,29.65
2022-08-06T12:12:26.922Z,29.68
2022-08-06T12:15:02.143Z,29.71
2022-08-06T12:17:45.723Z,29.76
2022-08-06T12:20:49.105Z,29.79
2022-08-06T12:23:53.991Z,29.77
2022-08-06T12:26:14.041Z,29.77
2022-08-06T12:28:45.614Z,29.79
2022-08-06T12:31:35.551Z,29.81
2022-08-06T12:34:06.206Z,29.84
2022-08-06T12:36:37.530Z,29.92
2022-08-06T12:39:19.473Z,30.01
2022-08-06T12:41:58.321Z,29.96
2022-08-06T12:44:57.054Z,29.99
2022-08-06T12:48:04.502Z,29.97
2022-08-06T12:50:30.257Z,30.00
2022-08-06T12:53:07.959Z,30.02
2022-08-06T12:55:56.847Z,30.09
2022-08-06T12:58:41.321Z,30.11
2022-08-06T13:02:08.310Z,30.09
2022-08-06T13:04:10.425Z,30.11
2022-08-06T13:06:48.906Z,30.09
2022-08-06T13:09:37.481Z,30.16
2022-08-06T13:12:29.666Z,30.15
2022-08-06T13:15:22.263Z,30.20
2022-08-06T13:18:30.375Z,30.26
2022-08-06T13:20:58.785Z,30.23
2022-08-06T13:23:43.750Z,30.28
2022-08-06T13:26:15.711Z,30.26
2022-08-06T13:30:34.712Z,30.25
2022-08-06T13:32:27.921Z,30.22
2022-08-06T13:35:17.086Z,30.28
2022-08-06T13:37:56.671Z,30.31
2022-08-06T13:40:47.026Z,30.31
2022-08-06T13:43:38.329Z,30.27
2022-08-06T13:46:27.295Z,30.30
2022-08-06T13:49:01.508Z,30.38
2022-08-06T13:51:34.350Z,30.31
2022-08-06T13:54:15.604Z,30.45
2022-08-06T13:56:48.839Z,30.38
2022-08-06T13:59:42.456Z,30.51
2022-08-06T14:02:12.604Z,30.50
2022-08-06T14:04:49.869Z,30.58
2022-08-06T14:07:19.129Z,30.55
2022-08-06T14:10:09.408Z,30.65
2022-08-06T14:12:37.441Z,30.60
2022-08-06T14:15:12.831Z,30.62
2022-08-06T14:17:45.669Z,30.65
2022-08-06T14:20:19.046Z,30.42
2022-08-06T14:22:52.389Z,30.62
2022-08-06T14:25:23.174Z,30.65
2022-08-06T14:27:56.443Z,30.74
2022-08-06T14:30:33.062Z,30.73
2022-08-06T14:33:10.238Z,30.73
2022-08-06T14:35:46.055Z,30.74
2022-08-06T14:38:32.789Z,30.78
2022-08-06T14:41:50.820Z,30.75
2022-08-06T14:44:31.143Z,30.79
2022-08-06T14:47:00.019Z,30.82
2022-08-06T14:49:38.318Z,30.84
2022-08-06T14:52:23.427Z,30.85
2022-08-06T14:55:06.564Z,30.90
2022-08-06T14:57:41.550Z,30.88
2022-08-06T15:00:34.708Z,30.91
2022-08-06T15:03:13.740Z,30.90
2022-08-06T15:06:00.189Z,30.93
2022-08-06T15:08:35.659Z,30.91
2022-08-06T15:11:06.483Z,30.97
2022-08-06T15:13:42.429Z,30.97
2022-08-06T15:16:11.094Z,30.95
2022-08-06T15:19:20.710Z,30.98
2022-08-06T15:21:54.823Z,31.00
2022-08-06T15:24:25.389Z,31.01
2022-08-06T15:26:57.014Z,30.99
2022-08-06T15:29:26.115Z,31.01
2022-08-06T15:31:58.853Z,31.00
2022-08-06T15:34:30.442Z,31.03
2022-08-06T15:37:02.883Z,31.07
2022-08-06T15:39:51.569Z,31.04
2022-08-06T15:42:24.066Z,31.04
2022-08-06T15:44:54.945Z,30.85
2022-08-06T15:47:32.347Z,30.92
2022-08-06T15:50:04.381Z,31.02
2022-08-06T15:52:42.640Z,30.99
2022-08-06T15:55:16.126Z,30.97
2022-08-06T15:58:05.278Z,30.96
2022-08-06T16:00:37.083Z,30.90
2022-08-06T16:03:11.483Z,30.97
2022-08-06T16:06:12.961Z,30.97
2022-08-06T16:08:34.766Z,30.87
2022-08-06T16:11:13.777Z,30.97
2022-08-06T16:13:53.776Z,30.98
2022-08-06T16:16:25.178Z,30.95
2022-08-06T16:19:03.107Z,30.97
2022-08-06T16:21:33.883Z,30.98
2022-08-06T16:24:05.690Z,30.96
2022-08-06T16:26:41.923Z,30.77
2022-08-06T16:29:20.038Z,30.87
2022-08-06T16:31:54.126Z,30.94
2022-08-06T16:34:30.339Z,30.93
2022-08-06T16:37:24.151Z,30.86
2022-08-06T16:39:59.985Z,30.85
2022-08-06T16:42:30.195Z,30.82
2022-08-06T16:45:02.623Z,30.74
2022-08-06T16:48:20.552Z,30.80
2022-08-06T16:50:36.658Z,30.77
2022-08-06T16:54:11.908Z,30.69
2022-08-06T16:55:55.391Z,30.71
2022-08-06T16:58:34.591Z,30.70
2022-08-06T17:02:14.553Z,30.61
2022-08-06T17:04:21.639Z,30.52
2022-08-06T17:06:55.164Z,30.56
2022-08-06T17:09:25.346Z,30.53
2022-08-06T17:11:58.644Z,30.53
2022-08-06T17:14:33.055Z,30.48
2022-08-06T17:17:05.390Z,30.45
2022-08-06T17:19:38.037Z,30.38
2022-08-06T17:22:10.732Z,30.33
2022-08-06T17:27:44.278Z,30.20
2022-08-06T17:30:18.787Z,30.17
2022-08-06T17:32:48.567Z,30.13
2022-08-06T17:35:20.724Z,30.08
2022-08-06T17:37:51.628Z,30.06
2022-08-06T17:40:31.912Z,29.81
2022-08-06T17:43:13.036Z,29.92
2022-08-06T17:46:00.286Z,29.84
2022-08-06T17:48:38.652Z,29.83
2022-08-06T17:51:10.001Z,29.85
2022-08-06T17:53:53.910Z,29.83
2022-08-06T17:56:30.670Z,29.83
2022-08-06T17:59:16.430Z,29.81
2022-08-06T18:01:50.909Z,29.74
2022-08-06T18:04:31.234Z,29.70
2022-08-06T18:07:11.854Z,29.66
2022-08-06T18:10:09.315Z,29.57
2022-08-06T18:12:49.282Z,29.51
2022-08-06T18:15:20.500Z,29.49
2022-08-06T18:18:03.852Z,29.46
2022-08-06T18:20:38.933Z,29.41
2022-08-06T18:23:20.718Z,29.37
2022-08-06T18:26:02.278Z,29.31
2022-08-06T18:28:39.880Z,29.19
2022-08-06T18:31:20.098Z,29.19
2022-08-06T18:33:53.758Z,29.13
2022-08-06T18:36:30.336Z,29.09
2022-08-06T18:39:12.984Z,29.04
2022-08-06T18:41:56.681Z,28.97
2022-08-06T18:44:27.397Z,28.90
2022-08-06T18:47:03.496Z,28.85
2022-08-06T18:52:22.910Z,28.70
2022-08-06T18:54:59.972Z,28.69
2022-08-06T18:57:38.322Z,28.63
2022-08-06T19:00:24.102Z,28.52
2022-08-06T19:03:01.625Z,28.37
2022-08-06T19:05:30.972Z,28.39
2022-08-06T19:08:09.292Z,28.36
2022-08-06T19:10:37.257Z,28.27
2022-08-06T19:13:10.670Z,28.24
2022-08-06T19:15:46.470Z,28.18
2022-08-06T19:18:25.716Z,28.05
2022-08-06T19:20:54.512Z,28.08
2022-08-06T19:24:03.100Z,28.02
2022-08-06T19:26:12.251Z,27.97
2022-08-06T19:28:49.652Z,27.89
2022-08-06T19:31:23.662Z,27.87
2022-08-06T19:34:18.411Z,27.82
2022-08-06T19:36:52.080Z,27.77
2022-08-06T19:39:58.368Z,27.73
2022-08-06T19:42:31.764Z,27.67
2022-08-06T19:45:03.868Z,27.52
2022-08-06T19:47:49.155Z,27.52
2022-08-06T19:50:22.415Z,27.40
2022-08-06T19:52:51.730Z,27.46
2022-08-06T19:56:09.025Z,27.39
2022-08-06T19:58:26.670Z,27.33
2022-08-06T20:01:32.063Z,27.29
2022-08-06T20:03:57.872Z,27.16
2022-08-06T20:06:30.047Z,27.16
2022-08-06T20:09:26.813Z,27.07
2022-08-06T20:12:04.379Z,27.05
2022-08-06T20:14:35.743Z,27.00
2022-08-06T20:17:04.700Z,26.98
2022-08-06T20:20:05.483Z,26.90
2022-08-06T20:22:23.553Z,26.88
2022-08-06T20:24:53.618Z,26.81
2022-08-06T20:28:39.745Z,26.74
2022-08-06T20:30:13.538Z,26.74
2022-08-06T20:32:42.275Z,26.61
2022-08-06T20:35:14.303Z,26.62
2022-08-06T20:37:45.159Z,26.52
2022-08-06T20:40:37.251Z,26.56
2022-08-06T20:44:06.141Z,26.49
2022-08-06T20:46:02.580Z,26.39
2022-08-06T20:48:30.531Z,26.40
2022-08-06T20:50:58.848Z,26.34
2022-08-06T20:53:30.121Z,26.32
2022-08-06T20:56:03.278Z,26.29
2022-08-06T20:58:32.461Z,26.22
2022-08-06T21:01:02.018Z,26.18
2022-08-06T21:05:14.157Z,26.09
2022-08-06T21:06:22.760Z,26.07
2022-08-06T21:08:51.776Z,26.10
2022-08-06T21:11:20.836Z,26.03
2022-08-06T21:13:59.932Z,26.03
2022-08-06T21:16:51.765Z,26.00
2022-08-06T21:19:23.550Z,25.93
2022-08-06T21:22:09.575Z,25.94
2022-08-06T21:24:38.540Z,25.94
2022-08-06T21:27:09.659Z,25.89
2022-08-06T21:30:09.685Z,25.82
2022-08-06T21:32:36.005Z,25.81
2022-08-06T21:35:10.857Z,25.75
2022-08-06T21:37:57.904Z,25.77
2022-08-06T21:40:33.015Z,25.68
2022-08-06T21:43:02.966Z,25.66
2022-08-06T21:45:58.563Z,25.64
2022-08-06T21:48:29.971Z,25.53
2022-08-06T21:50:59.675Z,25.49
2022-08-06T21:53:53.154Z,25.47
2022-08-06T21:56:36.667Z,25.44
2022-08-06T21:59:10.335Z,25.28
2022-08-06T22:02:09.798Z,25.26
2022-08-06T22:04:51.585Z,25.26
2022-08-06T22:07:15.222Z,25.19
2022-08-06T22:09:46.606Z,25.26
2022-08-06T22:12:36.984Z,25.22
2022-08-06T22:15:06.195Z,24.94
2022-08-06T22:18:01.320Z,24.99
2022-08-06T22:20:25.304Z,25.09
2022-08-06T22:22:58.183Z,25.12
2022-08-06T22:25:30.344Z,25.08
2022-08-06T22:28:02.014Z,24.99
2022-08-06T22:30:33.675Z,24.89
2022-08-06T22:33:10.128Z,24.94
2022-08-06T22:35:57.842Z,24.88
2022-08-06T22:38:32.051Z,24.76
2022-08-06T22:41:01.093Z,24.61
2022-08-06T22:43:51.740Z,24.59
2022-08-06T22:46:17.782Z,24.49
2022-08-06T22:48:49.869Z,24.39
2022-08-06T22:51:34.441Z,24.34
2022-08-06T22:54:26.511Z,24.26
2022-08-06T22:57:04.732Z,24.18
2022-08-06T23:00:12.224Z,24.12
2022-08-06T23:02:57.713Z,24.02
2022-08-06T23:05:27.365Z,23.96
2022-08-06T23:07:59.957Z,23.94
2022-08-06T23:10:30.320Z,23.86
2022-08-06T23:12:58.117Z,23.78
2022-08-06T23:15:39.041Z,23.75
2022-08-06T23:18:09.920Z,23.67
2022-08-06T23:20:41.440Z,23.66
2022-08-06T23:23:12.025Z,23.66
2022-08-06T23:26:00.396Z,23.66
2022-08-06T23:28:29.353Z,23.59
2022-08-06T23:30:58.362Z,23.56
2022-08-06T23:33:38.453Z,23.47
2022-08-06T23:36:09.372Z,23.43
2022-08-06T23:38:43.624Z,23.45
2022-08-06T23:41:19.625Z,23.47
2022-08-06T23:43:49.636Z,23.45
2022-08-06T23:46:19.840Z,23.42
2022-08-06T23:48:57.781Z,23.37
2022-08-06T23:51:35.931Z,23.31
2022-08-06T23:54:23.302Z,23.34
2022-08-06T23:56:57.574Z,23.31
2022-08-06T23:59:45.216Z,23.32
